createdAt,value
2023-11-30T08:58:02.867Z,946.07
2023-11-30T08:59:03.857Z,946.04
2023-11-30T09:00:03.929Z,946.02
2023-11-30T09:01:03.834Z,946.02
2023-11-30T09:02:03.945Z,946.04
2023-11-30T09:03:03.932Z,946.02
2023-11-30T09:04:03.819Z,945.97
2023-11-30T09:05:03.821Z,945.89
2023-11-30T09:06:03.845Z,945.84
2023-11-30T09:07:03.756Z,945.82
2023-11-30T09:08:03.771Z,945.81
2023-11-30T09:09:03.819Z,945.82
2023-11-30T09:10:03.742Z,945.84
2023-11-30T09:11:03.716Z,945.88
2023-11-30T09:12:03.878Z,945.91
2023-11-30T09:13:03.703Z,945.91
2023-11-30T09:14:03.743Z,945.90
2023-11-30T09:15:03.712Z,945.94
2023-11-30T09:16:03.706Z,945.98
2023-11-30T09:17:03.666Z,945.99
2023-11-30T09:18:03.738Z,946.01
2023-11-30T09:19:03.682Z,946.05
2023-11-30T09:20:03.644Z,946.09
2023-11-30T09:21:03.634Z,946.11
2023-11-30T09:22:03.639Z,946.10
2023-11-30T09:23:03.625Z,946.06
2023-11-30T09:24:03.660Z,946.03
2023-11-30T09:25:03.657Z,946.02
2023-11-30T09:26:03.643Z,946.04
2023-11-30T09:27:03.581Z,946.06
2023-11-30T09:28:03.678Z,946.05
2023-11-30T09:29:03.689Z,946.05
2023-11-30T09:30:03.568Z,946.05
2023-11-30T09:31:03.605Z,946.04
2023-11-30T09:32:03.507Z,946.03
2023-11-30T09:33:03.656Z,946.03
2023-11-30T09:34:03.483Z,946.02
2023-11-30T09:35:03.504Z,946.02
2023-11-30T09:36:03.462Z,946.01
2023-11-30T09:37:03.449Z,945.99
2023-11-30T09:38:03.471Z,945.97
2023-11-30T09:39:03.462Z,945.94
2023-11-30T09:40:03.412Z,945.94
2023-11-30T09:41:04.334Z,945.98
2023-11-30T09:42:03.476Z,946.03
2023-11-30T09:43:03.396Z,946.07
2023-11-30T09:44:03.419Z,946.08
2023-11-30T09:45:03.499Z,946.07
2023-11-30T09:46:03.453Z,946.06
2023-11-30T09:47:03.377Z,946.07
2023-11-30T09:48:03.404Z,946.10
2023-11-30T09:49:03.316Z,946.13
2023-11-30T09:50:03.344Z,946.13
2023-11-30T09:51:03.443Z,946.09
2023-11-30T09:52:03.315Z,946.03
2023-11-30T09:53:03.276Z,945.99
2023-11-30T09:54:03.292Z,945.95
2023-11-30T09:55:03.261Z,945.91
2023-11-30T09:56:03.263Z,945.89
2023-11-30T09:57:03.246Z,945.89
2023-11-30T09:58:03.233Z,945.91
2023-11-30T09:59:03.255Z,945.95
2023-11-30T10:00:03.218Z,945.97
2023-11-30T10:01:03.344Z,945.96
2023-11-30T10:02:05.560Z,945.93
2023-11-30T10:03:03.212Z,945.91
2023-11-30T10:04:03.278Z,945.89
2023-11-30T10:05:03.153Z,945.88
2023-11-30T10:06:03.155Z,945.89
2023-11-30T10:07:03.134Z,945.89
2023-11-30T10:08:03.141Z,945.85
2023-11-30T10:09:03.328Z,945.79
2023-11-30T10:10:03.107Z,945.74
2023-11-30T10:11:03.104Z,945.68
2023-11-30T10:12:03.157Z,945.61
2023-11-30T10:13:03.131Z,945.58
2023-11-30T10:14:03.179Z,945.59
2023-11-30T10:15:03.074Z,945.60
2023-11-30T10:16:03.116Z,945.61
2023-11-30T10:17:03.170Z,945.66
2023-11-30T10:18:03.306Z,945.69
2023-11-30T10:19:05.400Z,945.68
2023-11-30T10:20:03.099Z,945.64
2023-11-30T10:21:03.014Z,945.61
2023-11-30T10:22:02.985Z,945.59
2023-11-30T10:23:02.975Z,945.56
2023-11-30T10:24:03.021Z,945.51
2023-11-30T10:25:02.960Z,945.48
2023-11-30T10:26:02.940Z,945.46
2023-11-30T10:27:02.916Z,945.46
2023-11-30T10:28:02.902Z,945.44
2023-11-30T10:29:02.915Z,945.43
2023-11-30T10:30:02.949Z,945.42
2023-11-30T10:31:02.923Z,945.41
2023-11-30T10:32:02.877Z,945.40
2023-11-30T10:33:03.453Z,945.39
2023-11-30T10:34:02.969Z,945.36
2023-11-30T10:35:02.901Z,945.37
2023-11-30T10:36:02.900Z,945.41
2023-11-30T10:37:04.352Z,945.45
2023-11-30T10:38:02.828Z,945.48
2023-11-30T10:39:02.830Z,945.50
2023-11-30T10:40:02.802Z,945.51
2023-11-30T10:41:02.785Z,945.50
2023-11-30T10:42:02.783Z,945.49
2023-11-30T10:43:03.568Z,945.50
2023-11-30T10:44:02.750Z,945.50
2023-11-30T10:45:02.754Z,945.49
2023-11-30T10:46:02.767Z,945.48
2023-11-30T10:47:02.757Z,945.48
2023-11-30T10:48:02.757Z,945.49
2023-11-30T10:49:02.753Z,945.49
2023-11-30T10:50:02.698Z,945.48
2023-11-30T10:51:02.670Z,945.48
2023-11-30T10:52:04.009Z,945.50
2023-11-30T10:53:02.657Z,945.51
2023-11-30T10:54:02.652Z,945.49
2023-11-30T10:55:02.625Z,945.46
2023-11-30T10:56:02.646Z,945.44
2023-11-30T10:57:02.633Z,945.41
2023-11-30T10:58:02.621Z,945.40
2023-11-30T10:59:02.604Z,945.36
2023-11-30T11:00:02.599Z,945.31
2023-11-30T11:01:02.630Z,945.26
2023-11-30T11:02:02.710Z,945.23
2023-11-30T11:03:02.626Z,945.22
2023-11-30T11:04:02.605Z,945.24
2023-11-30T11:05:02.535Z,945.25
2023-11-30T11:06:02.542Z,945.22
2023-11-30T11:07:02.511Z,945.19
2023-11-30T11:08:02.508Z,945.20
2023-11-30T11:09:02.533Z,945.23
2023-11-30T11:10:03.551Z,945.26
2023-11-30T11:11:02.504Z,945.27
2023-11-30T11:12:02.486Z,945.26
2023-11-30T11:13:02.462Z,945.26
2023-11-30T11:14:02.476Z,945.26
2023-11-30T11:15:02.450Z,945.26
2023-11-30T11:16:02.551Z,945.25
2023-11-30T11:17:02.418Z,945.25
2023-11-30T11:18:02.451Z,945.26
2023-11-30T11:19:02.388Z,945.26
2023-11-30T11:20:02.401Z,945.25
2023-11-30T11:21:02.390Z,945.24
2023-11-30T11:22:02.366Z,945.26
2023-11-30T11:23:02.375Z,945.28
2023-11-30T11:24:02.369Z,945.29
2023-11-30T11:25:02.346Z,945.28
2023-11-30T11:26:02.340Z,945.26
2023-11-30T11:27:02.300Z,945.25
2023-11-30T11:28:02.333Z,945.24
2023-11-30T11:29:02.291Z,945.24
2023-11-30T11:30:02.290Z,945.23
2023-11-30T11:31:02.296Z,945.20
2023-11-30T11:32:02.284Z,945.17
2023-11-30T11:33:02.255Z,945.15
2023-11-30T11:34:02.262Z,945.12
2023-11-30T11:35:02.248Z,945.11
2023-11-30T11:36:02.231Z,945.12
2023-11-30T11:37:02.216Z,945.11
2023-11-30T11:38:02.208Z,945.08
2023-11-30T11:39:02.227Z,945.08
2023-11-30T11:40:02.173Z,945.07
2023-11-30T11:41:02.185Z,945.06
2023-11-30T11:42:02.173Z,945.04
2023-11-30T11:43:02.171Z,945.09
2023-11-30T11:44:02.166Z,945.15
2023-11-30T11:45:02.153Z,945.17
2023-11-30T11:46:02.249Z,945.15
2023-11-30T11:47:02.103Z,945.11
2023-11-30T11:48:02.143Z,945.07
2023-11-30T11:49:02.106Z,945.03
2023-11-30T11:50:02.100Z,944.99
2023-11-30T11:51:02.076Z,944.94
2023-11-30T11:52:02.056Z,944.91
2023-11-30T11:53:02.120Z,944.91
2023-11-30T11:54:02.032Z,944.92
2023-11-30T11:55:02.024Z,944.92
2023-11-30T11:56:02.007Z,944.93
2023-11-30T11:57:02.039Z,944.92
2023-11-30T11:58:02.105Z,944.92
2023-11-30T11:59:01.974Z,944.95
2023-11-30T12:00:01.987Z,944.97
2023-11-30T12:01:02.062Z,945.00
2023-11-30T12:02:02.054Z,945.04
2023-11-30T12:03:01.954Z,945.09
2023-11-30T12:04:02.073Z,945.12
2023-11-30T12:05:01.930Z,945.11
2023-11-30T12:06:01.902Z,945.10
2023-11-30T12:07:01.917Z,945.10
2023-11-30T12:08:01.900Z,945.12
2023-11-30T12:09:01.876Z,945.15
2023-11-30T12:10:01.967Z,945.18
2023-11-30T12:11:01.864Z,945.20
2023-11-30T12:12:01.859Z,945.15
2023-11-30T12:13:01.846Z,945.09
2023-11-30T12:14:01.833Z,945.06
2023-11-30T12:15:01.805Z,945.06
2023-11-30T12:16:01.871Z,945.08
2023-11-30T12:17:01.834Z,945.07
2023-11-30T12:18:01.811Z,945.04
2023-11-30T12:19:01.846Z,945.03
2023-11-30T12:20:01.781Z,945.04
2023-11-30T12:21:01.761Z,945.05
2023-11-30T12:22:01.746Z,945.04
2023-11-30T12:23:01.739Z,945.00
2023-11-30T12:24:01.707Z,944.97
2023-11-30T12:25:01.752Z,944.96
2023-11-30T12:26:01.739Z,944.95
2023-11-30T12:27:01.705Z,944.95
2023-11-30T12:28:01.737Z,944.96
2023-11-30T12:29:01.664Z,944.97
2023-11-30T12:30:01.675Z,944.98
2023-11-30T12:31:01.659Z,944.97
2023-11-30T12:32:01.666Z,944.94
2023-11-30T12:33:01.712Z,944.90
2023-11-30T12:34:01.678Z,944.85
2023-11-30T12:35:01.622Z,944.81
2023-11-30T12:36:01.612Z,944.78
2023-11-30T12:37:01.621Z,944.76
2023-11-30T12:38:01.572Z,944.75
2023-11-30T12:39:01.592Z,944.73
2023-11-30T12:40:01.615Z,944.72
2023-11-30T12:41:01.558Z,944.74
2023-11-30T12:42:03.562Z,944.77
2023-11-30T12:43:01.540Z,944.81
2023-11-30T12:44:03.010Z,944.89
2023-11-30T12:45:01.518Z,944.95
2023-11-30T12:46:01.523Z,944.97
2023-11-30T12:47:01.482Z,944.95
2023-11-30T12:48:01.516Z,944.91
2023-11-30T12:49:01.513Z,944.88
2023-11-30T12:50:01.498Z,944.86
2023-11-30T12:51:01.452Z,944.86
2023-11-30T12:52:01.428Z,944.88
2023-11-30T12:53:01.428Z,944.89
2023-11-30T12:54:01.430Z,944.89
2023-11-30T12:55:01.689Z,944.90
2023-11-30T12:56:01.375Z,944.93
2023-11-30T12:57:01.377Z,944.94
2023-11-30T12:58:01.377Z,944.95
2023-11-30T12:59:01.397Z,944.96
2023-11-30T13:00:01.350Z,944.97
2023-11-30T13:01:01.358Z,944.98
2023-11-30T13:02:01.429Z,944.99
2023-11-30T13:03:01.405Z,944.97
2023-11-30T13:04:01.405Z,944.96
2023-11-30T13:05:01.391Z,944.96
2023-11-30T13:06:01.303Z,944.95
2023-11-30T13:07:01.292Z,944.95
2023-11-30T13:08:01.309Z,944.94
2023-11-30T13:09:01.314Z,944.92
2023-11-30T13:10:01.284Z,944.89
2023-11-30T13:11:01.226Z,944.85
2023-11-30T13:12:01.294Z,944.82
2023-11-30T13:13:01.273Z,944.82
2023-11-30T13:14:01.248Z,944.81
2023-11-30T13:15:01.230Z,944.80
2023-11-30T13:16:01.160Z,944.75
2023-11-30T13:17:01.303Z,944.73
2023-11-30T13:18:01.256Z,944.73
2023-11-30T13:19:01.255Z,944.72
2023-11-30T13:20:01.149Z,944.71
2023-11-30T13:21:01.114Z,944.69
2023-11-30T13:22:01.106Z,944.68
2023-11-30T13:23:01.096Z,944.70
2023-11-30T13:24:01.076Z,944.73
2023-11-30T13:25:01.072Z,944.78
2023-11-30T13:26:01.072Z,944.80
2023-11-30T13:27:01.088Z,944.81
2023-11-30T13:28:01.069Z,944.82
2023-11-30T13:29:01.053Z,944.84
2023-11-30T13:30:01.103Z,944.87
2023-11-30T13:31:01.102Z,944.89
2023-11-30T13:32:01.100Z,944.90
2023-11-30T13:33:01.061Z,944.91
2023-11-30T13:34:01.001Z,944.91
2023-11-30T13:35:01.012Z,944.89
2023-11-30T13:36:01.001Z,944.83
2023-11-30T13:37:00.970Z,944.78
2023-11-30T13:38:00.968Z,944.76
2023-11-30T13:39:01.002Z,944.77
2023-11-30T13:40:00.934Z,944.79
2023-11-30T13:41:00.914Z,944.81
2023-11-30T13:42:00.931Z,944.82
2023-11-30T13:43:00.900Z,944.80
2023-11-30T13:44:00.877Z,944.76
2023-11-30T13:45:00.895Z,944.72
2023-11-30T13:46:00.871Z,944.72
2023-11-30T13:47:00.857Z,944.76
2023-11-30T13:48:00.889Z,944.80
2023-11-30T13:49:00.881Z,944.84
2023-11-30T13:50:00.834Z,944.85
2023-11-30T13:51:03.333Z,944.84
2023-11-30T13:52:00.859Z,944.82
2023-11-30T13:53:00.893Z,944.78
2023-11-30T13:54:00.837Z,944.78
2023-11-30T13:55:00.774Z,944.78
2023-11-30T13:56:00.765Z,944.77
2023-11-30T13:57:00.751Z,944.74
2023-11-30T13:58:00.739Z,944.70
2023-11-30T13:59:00.747Z,944.67
2023-11-30T14:00:00.715Z,944.67
2023-11-30T14:01:00.776Z,944.69
2023-11-30T14:02:00.779Z,944.69
2023-11-30T14:03:00.743Z,944.69
2023-11-30T14:04:00.737Z,944.69
2023-11-30T14:05:00.679Z,944.72
2023-11-30T14:06:00.661Z,944.75
2023-11-30T14:07:00.722Z,944.77
2023-11-30T14:08:00.661Z,944.77
2023-11-30T14:09:00.692Z,944.73
2023-11-30T14:10:00.626Z,944.67
2023-11-30T14:11:00.611Z,944.63
2023-11-30T14:12:00.596Z,944.62
2023-11-30T14:13:00.609Z,944.63
2023-11-30T14:14:00.591Z,944.63
2023-11-30T14:15:00.671Z,944.63
2023-11-30T14:16:00.569Z,944.63
2023-11-30T14:17:00.621Z,944.65
2023-11-30T14:18:00.605Z,944.67
2023-11-30T14:19:00.548Z,944.66
2023-11-30T14:20:00.586Z,944.66
2023-11-30T14:21:00.491Z,944.67
2023-11-30T14:22:00.552Z,944.68
2023-11-30T14:23:00.484Z,944.67
2023-11-30T14:24:00.479Z,944.64
2023-11-30T14:25:00.510Z,944.58
2023-11-30T14:26:00.462Z,944.54
2023-11-30T14:27:00.453Z,944.50
2023-11-30T14:28:05.195Z,944.46
2023-11-30T14:29:00.505Z,944.48
2023-11-30T14:30:00.407Z,944.55
2023-11-30T14:31:00.558Z,944.61
2023-11-30T14:32:00.424Z,944.64
2023-11-30T14:33:00.423Z,944.64
2023-11-30T14:34:00.473Z,944.65
2023-11-30T14:35:00.406Z,944.64
2023-11-30T14:36:00.386Z,944.65
2023-11-30T14:37:00.324Z,944.68
2023-11-30T14:38:00.492Z,944.70
2023-11-30T14:39:00.355Z,944.70
2023-11-30T14:40:00.380Z,944.70
2023-11-30T14:41:00.374Z,944.69
2023-11-30T14:42:00.332Z,944.70
2023-11-30T14:43:00.464Z,944.71
2023-11-30T14:44:00.308Z,944.71
2023-11-30T14:45:00.263Z,944.72
2023-11-30T14:46:00.429Z,944.74
2023-11-30T14:47:00.331Z,944.75
2023-11-30T14:48:00.277Z,944.76
2023-11-30T14:49:00.288Z,944.75
2023-11-30T14:50:00.334Z,944.74
2023-11-30T14:51:00.264Z,944.77
2023-11-30T14:52:00.252Z,944.80
2023-11-30T14:53:00.340Z,944.77
2023-11-30T14:54:00.235Z,944.77
2023-11-30T14:55:00.381Z,944.79
2023-11-30T14:56:00.230Z,944.78
2023-11-30T14:57:00.275Z,944.75
2023-11-30T14:58:00.312Z,944.74
2023-11-30T14:59:00.206Z,944.74
2023-11-30T15:00:00.223Z,944.69
2023-11-30T15:01:00.281Z,944.64
2023-11-30T15:02:00.330Z,944.61
2023-11-30T15:03:00.207Z,944.59
2023-11-30T15:04:00.224Z,944.61
2023-11-30T15:05:00.172Z,944.64
2023-11-30T15:06:00.128Z,944.64
2023-11-30T15:07:00.224Z,944.66
2023-11-30T15:08:00.091Z,944.68
2023-11-30T15:09:00.331Z,944.67
2023-11-30T15:09:59.996Z,944.63
2023-11-30T15:11:00.097Z,944.61
2023-11-30T15:12:00.001Z,944.64
2023-11-30T15:13:00.026Z,944.70
2023-11-30T15:13:59.985Z,944.73
2023-11-30T15:15:00.031Z,944.76
2023-11-30T15:15:59.985Z,944.79
2023-11-30T15:16:59.942Z,944.79
2023-11-30T15:17:59.966Z,944.77
2023-11-30T15:18:59.986Z,944.74
2023-11-30T15:20:00.004Z,944.73
2023-11-30T15:21:00.525Z,944.77
2023-11-30T15:21:59.957Z,944.84
2023-11-30T15:22:59.905Z,944.90
2023-11-30T15:23:59.873Z,944.90
2023-11-30T15:24:59.853Z,944.92
2023-11-30T15:25:59.821Z,944.95
2023-11-30T15:26:59.884Z,944.96
2023-11-30T15:27:59.854Z,944.96
2023-11-30T15:28:59.868Z,944.95
2023-11-30T15:29:59.782Z,944.95
2023-11-30T15:30:59.929Z,944.94
2023-11-30T15:31:59.779Z,944.96
2023-11-30T15:32:59.836Z,945.00
2023-11-30T15:33:59.917Z,945.03
2023-11-30T15:34:59.727Z,945.03
2023-11-30T15:35:59.752Z,945.01
2023-11-30T15:36:59.754Z,945.01
2023-11-30T15:37:59.792Z,945.05
2023-11-30T15:38:59.736Z,945.09
2023-11-30T15:39:59.687Z,945.11
2023-11-30T15:40:59.669Z,945.10
2023-11-30T15:41:59.662Z,945.09
2023-11-30T15:42:59.711Z,945.09
2023-11-30T15:43:59.687Z,945.09
2023-11-30T15:44:59.636Z,945.14
2023-11-30T15:45:59.665Z,945.17
2023-11-30T15:46:59.853Z,945.16
2023-11-30T15:47:59.665Z,945.11
2023-11-30T15:48:59.714Z,945.10
2023-11-30T15:49:59.685Z,945.12
2023-11-30T15:50:59.609Z,945.14
2023-11-30T15:51:59.570Z,945.14
2023-11-30T15:52:59.588Z,945.16
2023-11-30T15:53:59.589Z,945.14
2023-11-30T15:54:59.571Z,945.09
2023-11-30T15:55:59.690Z,945.01
2023-11-30T15:56:59.598Z,944.98
2023-11-30T15:57:59.528Z,945.07
2023-11-30T15:58:59.502Z,945.22
2023-11-30T15:59:59.531Z,945.31
2023-11-30T16:00:59.514Z,945.27
2023-11-30T16:01:59.596Z,945.20
2023-11-30T16:02:59.661Z,945.14
2023-11-30T16:03:59.757Z,945.07
2023-11-30T16:04:59.452Z,944.98
2023-11-30T16:05:59.471Z,944.90
2023-11-30T16:06:59.474Z,944.86
2023-11-30T16:07:59.380Z,944.87
2023-11-30T16:08:59.494Z,944.95
2023-11-30T16:09:59.409Z,945.03
2023-11-30T16:10:59.409Z,945.08
2023-11-30T16:11:59.417Z,945.09
2023-11-30T16:12:59.390Z,945.11
2023-11-30T16:13:59.741Z,945.15
2023-11-30T16:14:59.390Z,945.25
2023-11-30T16:15:59.327Z,945.34
2023-11-30T16:16:59.331Z,945.39
2023-11-30T16:17:59.383Z,945.39
2023-11-30T16:18:59.410Z,945.36
2023-11-30T16:19:59.316Z,945.34
2023-11-30T16:20:59.298Z,945.29
2023-11-30T16:21:59.305Z,945.21
2023-11-30T16:22:59.291Z,945.12
2023-11-30T16:23:59.361Z,945.13
2023-11-30T16:24:59.463Z,945.15
2023-11-30T16:25:59.203Z,945.15
2023-11-30T16:26:59.383Z,945.19
2023-11-30T16:27:59.345Z,945.29
2023-11-30T16:28:59.218Z,945.35
2023-11-30T16:29:59.187Z,945.36
2023-11-30T16:30:59.230Z,945.37
2023-11-30T16:31:59.309Z,945.34
2023-11-30T16:32:59.245Z,945.31
2023-11-30T16:33:59.245Z,945.32
2023-11-30T16:34:59.219Z,945.39
2023-11-30T16:35:59.269Z,945.46
2023-11-30T16:36:59.151Z,945.48
2023-11-30T16:37:59.121Z,945.46
2023-11-30T16:38:59.077Z,945.38
2023-11-30T16:39:59.274Z,945.29
2023-11-30T16:40:59.126Z,945.21
2023-11-30T16:41:59.105Z,945.15
2023-11-30T16:42:59.107Z,945.04
2023-11-30T16:43:59.120Z,944.91
2023-11-30T16:44:59.064Z,944.83
2023-11-30T16:45:59.250Z,944.84
2023-11-30T16:46:59.120Z,944.86
2023-11-30T16:47:59.090Z,944.83
2023-11-30T16:48:59.078Z,944.75
2023-11-30T16:49:59.016Z,944.67
2023-11-30T16:50:58.958Z,944.68
2023-11-30T16:51:59.999Z,944.76
2023-11-30T16:52:59.010Z,944.90
2023-11-30T16:53:58.976Z,945.02
2023-11-30T16:54:58.978Z,945.09
2023-11-30T16:55:58.966Z,945.23
2023-11-30T16:56:58.948Z,945.37
2023-11-30T16:57:58.954Z,945.39
2023-11-30T16:58:58.947Z,945.33
2023-11-30T16:59:58.855Z,945.30
2023-11-30T17:00:58.949Z,945.35
2023-11-30T17:01:58.934Z,945.38
2023-11-30T17:02:58.927Z,945.33
2023-11-30T17:03:59.016Z,945.27
2023-11-30T17:04:58.949Z,945.23
2023-11-30T17:05:58.947Z,945.22
2023-11-30T17:06:58.992Z,945.22
2023-11-30T17:07:58.902Z,945.20
2023-11-30T17:08:58.900Z,945.20
2023-11-30T17:09:58.952Z,945.16
2023-11-30T17:10:58.822Z,945.07
2023-11-30T17:11:58.786Z,944.98
2023-11-30T17:12:58.916Z,944.97
2023-11-30T17:13:58.725Z,945.03
2023-11-30T17:14:58.724Z,945.06
2023-11-30T17:15:58.776Z,945.01
2023-11-30T17:16:59.562Z,944.98
2023-11-30T17:17:58.748Z,944.99
2023-11-30T17:18:58.752Z,945.00
2023-11-30T17:19:58.742Z,944.99
2023-11-30T17:20:58.707Z,945.03
2023-11-30T17:21:58.735Z,945.03
2023-11-30T17:22:58.671Z,944.96
2023-11-30T17:23:58.668Z,944.90
2023-11-30T17:24:58.692Z,944.90
2023-11-30T17:25:58.895Z,944.95
2023-11-30T17:26:58.639Z,944.99
2023-11-30T17:27:58.647Z,945.03
2023-11-30T17:28:58.624Z,945.08
2023-11-30T17:29:58.605Z,945.12
2023-11-30T17:30:59.432Z,945.15
2023-11-30T17:31:58.570Z,945.15
2023-11-30T17:32:58.653Z,945.14
2023-11-30T17:33:58.704Z,945.13
2023-11-30T17:34:58.707Z,945.14
2023-11-30T17:35:58.548Z,945.17
2023-11-30T17:36:58.529Z,945.15
2023-11-30T17:37:58.531Z,945.10
2023-11-30T17:38:58.509Z,945.09
2023-11-30T17:39:58.509Z,945.11
2023-11-30T17:40:58.489Z,945.15
2023-11-30T17:41:58.471Z,945.17
2023-11-30T17:42:58.485Z,945.17
2023-11-30T17:43:58.473Z,945.15
2023-11-30T17:44:58.492Z,945.14
2023-11-30T17:45:58.515Z,945.17
2023-11-30T17:46:58.435Z,945.23
2023-11-30T17:47:58.476Z,945.27
2023-11-30T17:48:58.381Z,945.28
2023-11-30T17:49:58.869Z,945.27
2023-11-30T17:50:58.443Z,945.20
2023-11-30T17:51:58.411Z,945.13
2023-11-30T17:52:58.379Z,945.12
2023-11-30T17:53:58.350Z,945.14
2023-11-30T17:54:58.531Z,945.15
2023-11-30T17:55:58.325Z,945.13
2023-11-30T17:56:58.330Z,945.08
2023-11-30T17:57:58.335Z,945.06
2023-11-30T17:58:58.287Z,945.11
2023-11-30T17:59:58.270Z,945.13
2023-11-30T18:00:58.385Z,945.10
2023-11-30T18:01:58.328Z,945.06
2023-11-30T18:02:58.250Z,945.03
2023-11-30T18:03:58.358Z,945.03
2023-11-30T18:04:58.216Z,945.06
2023-11-30T18:05:58.229Z,945.12
2023-11-30T18:06:58.248Z,945.15
2023-11-30T18:07:58.251Z,945.16
2023-11-30T18:08:58.194Z,945.14
2023-11-30T18:09:58.236Z,945.13
2023-11-30T18:10:58.247Z,945.13
2023-11-30T18:11:58.237Z,945.13
2023-11-30T18:12:58.136Z,945.12
2023-11-30T18:13:58.246Z,945.09
2023-11-30T18:14:58.132Z,945.08
2023-11-30T18:15:59.290Z,945.15
2023-11-30T18:16:58.150Z,945.21
2023-11-30T18:17:58.129Z,945.21
2023-11-30T18:18:58.151Z,945.16
2023-11-30T18:19:58.098Z,945.12
2023-11-30T18:20:58.098Z,945.14
2023-11-30T18:21:58.092Z,945.20
2023-11-30T18:22:58.069Z,945.28
2023-11-30T18:23:58.042Z,945.27
2023-11-30T18:24:58.078Z,945.17
2023-11-30T18:25:58.030Z,945.10
2023-11-30T18:26:57.999Z,945.08
2023-11-30T18:27:58.017Z,945.07
2023-11-30T18:28:57.985Z,945.06
2023-11-30T18:29:58.025Z,945.04
2023-11-30T18:31:08.243Z,945.04
2023-11-30T18:31:58.032Z,945.02
2023-11-30T18:32:57.977Z,945.01
2023-11-30T18:33:57.995Z,944.97
2023-11-30T18:34:59.476Z,944.94
2023-11-30T18:35:57.912Z,944.96
2023-11-30T18:36:58.013Z,945.04
2023-11-30T18:37:59.943Z,945.09
2023-11-30T18:38:57.827Z,945.06
2023-11-30T18:39:57.911Z,945.02
2023-11-30T18:40:57.905Z,945.00
2023-11-30T18:41:57.858Z,945.02
2023-11-30T18:42:57.849Z,945.01
2023-11-30T18:43:57.850Z,945.03
2023-11-30T18:44:57.833Z,945.10
2023-11-30T18:45:57.868Z,945.15
2023-11-30T18:46:57.842Z,945.13
2023-11-30T18:47:57.824Z,945.10
2023-11-30T18:48:57.798Z,945.11
2023-11-30T18:49:57.781Z,945.14
2023-11-30T18:50:57.745Z,945.15
2023-11-30T18:51:57.816Z,945.10
2023-11-30T18:52:57.739Z,944.99
2023-11-30T18:53:57.751Z,944.95
2023-11-30T18:54:57.746Z,945.03
2023-11-30T18:55:57.717Z,945.12
2023-11-30T18:56:57.712Z,945.11
2023-11-30T18:57:57.725Z,945.05
2023-11-30T18:58:57.662Z,945.08
2023-11-30T18:59:57.616Z,945.18
2023-11-30T19:00:57.630Z,945.19
2023-11-30T19:01:57.811Z,945.10
2023-11-30T19:02:57.665Z,945.01
2023-11-30T19:03:57.607Z,944.94
2023-11-30T19:04:57.623Z,944.92
2023-11-30T19:05:57.638Z,944.91
2023-11-30T19:06:57.635Z,944.93
2023-11-30T19:07:57.570Z,944.96
2023-11-30T19:08:57.533Z,945.00
2023-11-30T19:09:57.590Z,944.98
2023-11-30T19:10:57.531Z,944.92
2023-11-30T19:11:57.537Z,944.88
2023-11-30T19:12:57.554Z,944.89
2023-11-30T19:13:57.482Z,944.90
2023-11-30T19:14:57.493Z,944.93
2023-11-30T19:15:57.577Z,944.99
2023-11-30T19:16:57.485Z,945.08
2023-11-30T19:17:57.565Z,945.13
2023-11-30T19:18:57.761Z,945.15
2023-11-30T19:19:57.478Z,945.12
2023-11-30T19:20:57.436Z,945.08
2023-11-30T19:21:57.445Z,945.04
2023-11-30T19:22:57.431Z,945.06
2023-11-30T19:23:57.402Z,945.13
2023-11-30T19:24:57.467Z,945.14
2023-11-30T19:25:57.377Z,945.08
2023-11-30T19:26:57.402Z,945.06
2023-11-30T19:27:57.548Z,945.07
2023-11-30T19:28:57.371Z,945.11
2023-11-30T19:29:57.378Z,945.15
2023-11-30T19:30:57.630Z,945.16
2023-11-30T19:31:57.337Z,945.18
2023-11-30T19:32:57.413Z,945.17
2023-11-30T19:33:57.333Z,945.19
2023-11-30T19:34:57.327Z,945.23
2023-11-30T19:35:57.310Z,945.25
2023-11-30T19:36:57.364Z,945.21
2023-11-30T19:37:57.270Z,945.14
2023-11-30T19:38:57.267Z,945.09
2023-11-30T19:39:59.042Z,945.10
2023-11-30T19:40:57.445Z,945.19
2023-11-30T19:41:57.293Z,945.27
2023-11-30T19:42:57.230Z,945.33
2023-11-30T19:43:57.205Z,945.33
2023-11-30T19:44:57.199Z,945.26
2023-11-30T19:45:58.344Z,945.19
2023-11-30T19:46:57.231Z,945.17
2023-11-30T19:47:57.217Z,945.26
2023-11-30T19:48:57.166Z,945.32
2023-11-30T19:49:57.160Z,945.33
2023-11-30T19:50:57.120Z,945.29
2023-11-30T19:51:57.178Z,945.22
2023-11-30T19:52:57.095Z,945.19
2023-11-30T19:53:57.113Z,945.19
2023-11-30T19:54:57.172Z,945.22
2023-11-30T19:55:57.081Z,945.27
2023-11-30T19:56:57.065Z,945.27
2023-11-30T19:57:57.130Z,945.26
2023-11-30T19:58:57.048Z,945.22
2023-11-30T19:59:57.036Z,945.16
2023-11-30T20:00:57.061Z,945.12
2023-11-30T20:01:57.069Z,945.10
2023-11-30T20:02:56.984Z,945.10
2023-11-30T20:03:57.099Z,945.12
2023-11-30T20:04:56.997Z,945.16
2023-11-30T20:05:56.975Z,945.20
2023-11-30T20:06:57.018Z,945.22
2023-11-30T20:07:56.944Z,945.22
2023-11-30T20:08:56.949Z,945.25
2023-11-30T20:09:57.011Z,945.31
2023-11-30T20:10:56.910Z,945.36
2023-11-30T20:11:56.908Z,945.40
2023-11-30T20:12:56.926Z,945.42
2023-11-30T20:13:56.904Z,945.41
2023-11-30T20:14:56.987Z,945.43
2023-11-30T20:15:56.908Z,945.47
2023-11-30T20:16:56.881Z,945.51
2023-11-30T20:17:56.868Z,945.55
2023-11-30T20:18:56.937Z,945.56
2023-11-30T20:19:56.820Z,945.52
2023-11-30T20:20:56.816Z,945.43
2023-11-30T20:21:56.853Z,945.36
2023-11-30T20:22:56.807Z,945.29
2023-11-30T20:23:56.783Z,945.28
2023-11-30T20:24:56.776Z,945.30
2023-11-30T20:25:56.778Z,945.29
2023-11-30T20:26:56.736Z,945.25
2023-11-30T20:27:56.810Z,945.22
2023-11-30T20:28:56.716Z,945.25
2023-11-30T20:29:56.715Z,945.29
2023-11-30T20:30:56.768Z,945.31
2023-11-30T20:31:56.696Z,945.31
2023-11-30T20:32:56.760Z,945.32
2023-11-30T20:33:56.738Z,945.32
2023-11-30T20:34:56.663Z,945.34
2023-11-30T20:35:56.674Z,945.36
2023-11-30T20:36:56.716Z,945.39
2023-11-30T20:37:56.654Z,945.44
2023-11-30T20:38:56.635Z,945.49
2023-11-30T20:39:56.653Z,945.52
2023-11-30T20:40:56.632Z,945.54
2023-11-30T20:41:56.604Z,945.54
2023-11-30T20:42:56.663Z,945.52
2023-11-30T20:43:56.598Z,945.49
2023-11-30T20:44:56.584Z,945.46
2023-11-30T20:45:56.583Z,945.45
2023-11-30T20:46:56.604Z,945.47
2023-11-30T20:47:56.641Z,945.50
2023-11-30T20:48:56.559Z,945.51
2023-11-30T20:49:56.511Z,945.50
2023-11-30T20:50:56.509Z,945.46
2023-11-30T20:51:56.485Z,945.43
2023-11-30T20:52:56.492Z,945.43
2023-11-30T20:53:56.462Z,945.45
2023-11-30T20:54:56.516Z,945.47
2023-11-30T20:55:56.436Z,945.49
2023-11-30T20:56:56.467Z,945.52
2023-11-30T20:57:56.578Z,945.54
2023-11-30T20:58:56.490Z,945.55
2023-11-30T20:59:56.407Z,945.54
2023-11-30T21:00:56.507Z,945.55
2023-11-30T21:01:56.581Z,945.55
2023-11-30T21:02:56.509Z,945.51
2023-11-30T21:03:56.487Z,945.45
2023-11-30T21:04:56.374Z,945.46
2023-11-30T21:05:56.337Z,945.50
2023-11-30T21:06:56.366Z,945.52
2023-11-30T21:07:56.330Z,945.52
2023-11-30T21:08:56.338Z,945.52
2023-11-30T21:09:56.343Z,945.51
2023-11-30T21:10:56.301Z,945.52
2023-11-30T21:11:56.985Z,945.54
2023-11-30T21:12:56.359Z,945.56
2023-11-30T21:13:56.253Z,945.58
2023-11-30T21:14:56.266Z,945.58
2023-11-30T21:15:56.306Z,945.58
2023-11-30T21:16:56.273Z,945.59
2023-11-30T21:17:56.253Z,945.58
2023-11-30T21:18:56.222Z,945.56
2023-11-30T21:19:56.208Z,945.58
2023-11-30T21:20:56.263Z,945.63
2023-11-30T21:21:56.218Z,945.65
2023-11-30T21:22:56.170Z,945.65
2023-11-30T21:23:56.157Z,945.65
2023-11-30T21:24:56.213Z,945.65
2023-11-30T21:25:56.170Z,945.63